Time;durP1;ratioP1;P1;durP2;ratioP2;P2;SDS_P1;SDS_P2;PMS_P1;PMS_P2;Temp;Humidity;BMP_temperature;BMP_pressure;BME280_temperature;BME280_humidity;BME280_pressure;Samples;Min_cycle;Max_cycle;Signal;HPM_P1;HPM_P2
2024/01/30 00:00:05;;;;;;;30.90;22.27;;;7.00;99.90;;;;;;5030169;28;20049;-61
2024/01/30 00:02:32;;;;;;;28.00;21.85;;;7.00;99.90;;;;;;5043210;28;20050;-61
2024/01/30 00:04:58;;;;;;;32.97;22.13;;;7.00;99.90;;;;;;5044679;28;20052;-61
2024/01/30 00:07:23;;;;;;;33.83;23.05;;;7.00;99.90;;;;;;5047100;28;20450;-61
2024/01/30 00:09:49;;;;;;;31.17;21.48;;;7.00;99.90;;;;;;5049636;28;20406;-61
2024/01/30 00:12:15;;;;;;;31.05;22.80;;;7.00;99.90;;;;;;5046412;28;20087;-61
2024/01/30 00:14:43;;;;;;;30.88;22.52;;;7.00;99.90;;;;;;5044363;28;20038;-61
2024/01/30 00:17:09;;;;;;;34.90;23.17;;;7.00;99.90;;;;;;5048798;28;20036;-61
2024/01/30 00:19:35;;;;;;;34.05;23.17;;;6.90;99.90;;;;;;5032351;28;20037;-61
2024/01/30 00:22:01;;;;;;;28.70;21.95;;;6.90;99.90;;;;;;5048334;28;20037;-61
2024/01/30 00:24:26;;;;;;;29.52;21.98;;;6.90;99.90;;;;;;5049555;28;20036;-60
2024/01/30 00:26:52;;;;;;;35.00;23.20;;;6.90;99.90;;;;;;5032277;28;20028;-61
2024/01/30 00:29:19;;;;;;;33.00;24.02;;;6.90;99.90;;;;;;5046960;28;20539;-61
2024/01/30 00:31:45;;;;;;;32.05;22.75;;;6.90;99.90;;;;;;5047103;28;20133;-61
2024/01/30 00:34:11;;;;;;;31.60;23.23;;;6.90;99.90;;;;;;5048408;28;20052;-61
2024/01/30 00:36:37;;;;;;;32.33;22.90;;;7.00;99.90;;;;;;5029584;28;20051;-61
2024/01/30 00:39:06;;;;;;;30.08;22.65;;;7.00;99.90;;;;;;5030005;28;20554;-61
2024/01/30 00:41:32;;;;;;;33.17;22.70;;;7.00;99.90;;;;;;5047719;28;20056;-61
2024/01/30 00:43:58;;;;;;;33.72;22.33;;;7.00;99.90;;;;;;5032996;28;20072;-61
2024/01/30 00:46:23;;;;;;;34.72;22.83;;;7.00;99.90;;;;;;5030893;28;20083;-61
2024/01/30 00:48:49;;;;;;;35.55;24.08;;;7.00;99.90;;;;;;5042904;28;20040;-61
2024/01/30 00:51:15;;;;;;;29.65;22.58;;;7.00;99.90;;;;;;5046057;28;20516;-61
2024/01/30 00:53:41;;;;;;;30.42;22.90;;;7.00;99.90;;;;;;5024703;28;20043;-61
2024/01/30 00:56:07;;;;;;;31.67;22.60;;;7.00;99.90;;;;;;5064869;28;20040;-61
2024/01/30 00:58:34;;;;;;;30.17;21.83;;;7.00;99.90;;;;;;5045145;28;20052;-61
2024/01/30 01:01:03;;;;;;;31.33;22.20;;;7.00;99.90;;;;;;5046225;28;20162;-61
2024/01/30 01:03:28;;;;;;;28.63;22.45;;;7.00;99.90;;;;;;5032150;28;20512;-61
2024/01/30 01:05:54;;;;;;;32.03;22.77;;;7.00;99.90;;;;;;5047195;28;20044;-61
2024/01/30 01:08:20;;;;;;;36.13;25.25;;;7.00;99.90;;;;;;5043561;28;20048;-61
2024/01/30 01:10:46;;;;;;;34.25;23.40;;;7.00;99.90;;;;;;5044550;28;20170;-61
2024/01/30 01:13:11;;;;;;;30.42;22.60;;;7.00;99.90;;;;;;5030934;28;20044;-59
2024/01/30 01:15:37;;;;;;;31.38;23.10;;;7.00;99.90;;;;;;5031615;28;21114;-61
2024/01/30 01:18:03;;;;;;;33.78;23.70;;;7.00;99.90;;;;;;5046626;28;20487;-61
2024/01/30 01:20:29;;;;;;;33.15;22.83;;;7.00;99.90;;;;;;5062822;28;20044;-61
2024/01/30 01:22:54;;;;;;;32.53;22.55;;;7.00;99.90;;;;;;5047464;28;20474;-61
2024/01/30 01:25:20;;;;;;;32.38;23.23;;;7.00;99.90;;;;;;5066798;28;20234;-60
2024/01/30 01:27:51;;;;;;;32.90;23.80;;;7.00;99.90;;;;;;5046122;28;20411;-60
2024/01/30 01:30:21;;;;;;;30.15;22.13;;;7.00;99.90;;;;;;5062700;28;20491;-60
2024/01/30 01:32:54;;;;;;;28.02;21.60;;;7.00;99.90;;;;;;5047130;28;20203;-61
2024/01/30 01:35:24;;;;;;;32.47;23.35;;;7.00;99.90;;;;;;5065160;28;20509;-61
2024/01/30 01:37:59;;;;;;;35.75;23.92;;;7.00;99.90;;;;;;5062479;28;20053;-61
2024/01/30 01:40:26;;;;;;;32.33;22.55;;;7.00;99.90;;;;;;5045752;28;20099;-60
2024/01/30 01:42:53;;;;;;;32.88;24.20;;;7.00;99.90;;;;;;5015466;28;20256;-60
2024/01/30 01:45:20;;;;;;;30.85;21.70;;;6.90;99.90;;;;;;5047176;28;20502;-61
2024/01/30 01:47:48;;;;;;;33.47;22.50;;;6.90;99.90;;;;;;5047255;28;20358;-61
2024/01/30 01:50:18;;;;;;;32.65;22.42;;;6.90;99.90;;;;;;5045405;28;20040;-61
2024/01/30 01:52:44;;;;;;;30.77;22.48;;;6.90;99.90;;;;;;5063415;28;20045;-60
2024/01/30 01:55:11;;;;;;;34.42;23.55;;;6.90;99.90;;;;;;5045320;28;20037;-61
2024/01/30 01:57:37;;;;;;;33.72;23.52;;;6.90;99.90;;;;;;5042744;28;20040;-60
2024/01/30 02:00:04;;;;;;;30.92;21.85;;;6.90;99.90;;;;;;5032452;28;20040;-61
2024/01/30 02:02:32;;;;;;;31.38;22.67;;;6.90;99.90;;;;;;5045500;28;20072;-59
2024/01/30 02:04:58;;;;;;;32.35;24.35;;;6.90;99.90;;;;;;5043683;28;20083;-61
2024/01/30 02:07:24;;;;;;;26.77;21.58;;;6.90;99.90;;;;;;5041267;28;20043;-61
2024/01/30 02:09:50;;;;;;;31.00;22.95;;;6.90;99.90;;;;;;5045715;28;20036;-61
2024/01/30 02:12:15;;;;;;;35.90;23.58;;;6.90;99.90;;;;;;5041364;28;20079;-60
2024/01/30 02:14:46;;;;;;;29.90;22.23;;;6.90;99.90;;;;;;5030341;28;20223;-61
2024/01/30 02:17:12;;;;;;;30.88;22.42;;;7.00;99.90;;;;;;5063235;28;20044;-61
2024/01/30 02:19:38;;;;;;;31.42;22.52;;;7.00;99.90;;;;;;5047679;28;20052;-61
2024/01/30 02:22:05;;;;;;;35.90;23.27;;;7.00;99.90;;;;;;5028612;28;20418;-61
2024/01/30 02:24:30;;;;;;;32.85;23.35;;;7.00;99.90;;;;;;5046933;28;20125;-59
2024/01/30 02:26:56;;;;;;;33.00;23.13;;;7.00;99.90;;;;;;5065441;28;20048;-59
2024/01/30 02:29:22;;;;;;;29.60;22.23;;;7.00;99.90;;;;;;5046546;28;20479;-61
2024/01/30 02:31:48;;;;;;;37.17;24.65;;;7.00;99.90;;;;;;5046914;28;20127;-61
2024/01/30 02:34:14;;;;;;;31.13;22.90;;;7.00;99.90;;;;;;5028984;28;20037;-61
2024/01/30 02:36:43;;;;;;;30.45;22.63;;;7.00;99.90;;;;;;5046553;28;20044;-61
2024/01/30 02:39:09;;;;;;;35.67;23.77;;;7.10;99.90;;;;;;5046254;28;20043;-61
2024/01/30 02:41:36;;;;;;;29.45;23.35;;;7.10;99.90;;;;;;5044279;28;20054;-61
2024/01/30 02:44:02;;;;;;;32.08;21.98;;;7.10;99.90;;;;;;5048401;28;20052;-62
2024/01/30 02:46:28;;;;;;;31.63;22.65;;;7.10;99.90;;;;;;5047031;28;20051;-59
2024/01/30 02:48:54;;;;;;;31.67;24.02;;;7.10;99.90;;;;;;5045220;28;20036;-59
2024/01/30 02:51:19;;;;;;;35.50;23.05;;;7.10;99.90;;;;;;5042310;28;20112;-60
2024/01/30 02:53:45;;;;;;;33.63;22.58;;;7.10;99.90;;;;;;5032561;28;20041;-61
2024/01/30 02:56:13;;;;;;;34.40;24.17;;;7.20;99.90;;;;;;5045128;28;20365;-59
2024/01/30 02:58:39;;;;;;;32.40;23.17;;;7.20;99.90;;;;;;5028578;28;20403;-60
2024/01/30 03:01:06;;;;;;;29.50;21.27;;;7.20;99.90;;;;;;5028758;28;20540;-61
2024/01/30 03:03:32;;;;;;;30.65;21.90;;;7.10;99.90;;;;;;5046092;28;20048;-61
2024/01/30 03:05:57;;;;;;;34.45;21.65;;;7.20;99.90;;;;;;5046947;28;20040;-61
2024/01/30 03:08:23;;;;;;;31.08;21.92;;;7.10;99.90;;;;;;5046404;28;20050;-61
2024/01/30 03:10:49;;;;;;;33.38;22.85;;;7.10;99.90;;;;;;5050721;28;20055;-61
2024/01/30 03:13:15;;;;;;;29.95;21.95;;;7.10;99.90;;;;;;5027325;28;20040;-61
2024/01/30 03:15:40;;;;;;;29.13;21.70;;;7.10;99.90;;;;;;5041057;28;20040;-61
2024/01/30 03:18:06;;;;;;;31.75;23.05;;;7.20;99.90;;;;;;5040642;28;20439;-61
2024/01/30 03:20:33;;;;;;;32.28;22.65;;;7.10;99.90;;;;;;5042261;28;20048;-61
2024/01/30 03:23:00;;;;;;;30.58;21.33;;;7.20;99.90;;;;;;5044240;28;20513;-61
2024/01/30 03:25:26;;;;;;;35.80;22.13;;;7.20;99.90;;;;;;5044910;28;20052;-61
2024/01/30 03:27:51;;;;;;;27.98;21.27;;;7.20;99.90;;;;;;5047182;28;20424;-60
2024/01/30 03:30:18;;;;;;;29.60;21.63;;;7.20;99.90;;;;;;5028194;28;20037;-61
2024/01/30 03:32:44;;;;;;;31.55;21.60;;;7.20;99.90;;;;;;5044745;28;20173;-61
2024/01/30 03:35:10;;;;;;;28.80;20.92;;;7.20;99.90;;;;;;5044141;28;20503;-61
2024/01/30 03:37:35;;;;;;;27.83;20.45;;;7.20;99.90;;;;;;5046726;28;20072;-61
2024/01/30 03:40:02;;;;;;;26.73;20.33;;;7.10;99.90;;;;;;5027156;28;20040;-61
2024/01/30 03:42:28;;;;;;;27.17;20.63;;;7.10;99.90;;;;;;5029324;28;20098;-61
2024/01/30 03:44:54;;;;;;;27.15;19.40;;;7.10;99.90;;;;;;5050304;28;20129;-61
2024/01/30 03:47:21;;;;;;;29.52;20.85;;;7.10;99.90;;;;;;5049578;28;20044;-61
2024/01/30 03:49:47;;;;;;;30.25;22.10;;;7.10;99.90;;;;;;5047139;28;20045;-61
2024/01/30 03:52:12;;;;;;;28.58;19.27;;;7.10;99.90;;;;;;5047991;28;20568;-61
2024/01/30 03:54:38;;;;;;;36.03;22.45;;;7.10;99.90;;;;;;5032602;28;20052;-61
2024/01/30 03:57:05;;;;;;;28.58;20.85;;;7.10;99.90;;;;;;5047855;28;20150;-61
2024/01/30 03:59:31;;;;;;;29.52;20.85;;;7.20;99.90;;;;;;5049710;28;20032;-61
2024/01/30 04:01:56;;;;;;;30.35;21.13;;;7.20;99.90;;;;;;5065008;28;20040;-61
2024/01/30 04:04:23;;;;;;;26.95;21.58;;;7.20;99.90;;;;;;5019038;28;20070;-61
2024/01/30 04:06:48;;;;;;;29.38;21.40;;;7.20;99.90;;;;;;5049717;28;20036;-61
2024/01/30 04:09:14;;;;;;;27.92;20.73;;;7.20;99.90;;;;;;5033411;28;20415;-61
2024/01/30 04:11:41;;;;;;;29.92;21.20;;;7.20;99.90;;;;;;5035976;28;20044;-61
2024/01/30 04:14:07;;;;;;;30.67;20.95;;;7.20;99.90;;;;;;5032727;28;20053;-61
2024/01/30 04:16:33;;;;;;;31.50;21.73;;;7.30;99.90;;;;;;5020954;28;20044;-62
2024/01/30 04:18:59;;;;;;;29.63;21.15;;;7.30;99.90;;;;;;5046062;28;20033;-61
2024/01/30 04:21:24;;;;;;;28.83;20.38;;;7.30;99.90;;;;;;5050510;28;20043;-60
2024/01/30 04:23:55;;;;;;;30.73;20.70;;;7.30;99.90;;;;;;5048995;28;20036;-61
2024/01/30 04:26:21;;;;;;;30.55;20.75;;;7.30;99.90;;;;;;5052892;28;20555;-62
2024/01/30 04:28:46;;;;;;;29.25;20.23;;;7.40;99.90;;;;;;5032287;28;20107;-61
2024/01/30 04:31:13;;;;;;;29.90;20.48;;;7.40;99.90;;;;;;5047956;28;20036;-61
2024/01/30 04:33:39;;;;;;;30.35;20.63;;;7.40;99.90;;;;;;5033263;28;20052;-60
2024/01/30 04:36:08;;;;;;;27.10;18.92;;;7.40;99.90;;;;;;5043432;28;20036;-61
2024/01/30 04:38:34;;;;;;;27.77;19.75;;;7.40;99.90;;;;;;5045521;28;20048;-61
2024/01/30 04:41:00;;;;;;;28.73;19.27;;;7.50;99.90;;;;;;5049220;28;20059;-61
2024/01/30 04:43:26;;;;;;;26.70;19.13;;;7.40;99.90;;;;;;5049794;28;20044;-62
2024/01/30 04:45:52;;;;;;;28.40;19.70;;;7.50;99.90;;;;;;5047324;28;20311;-62
2024/01/30 04:48:18;;;;;;;28.33;19.80;;;7.50;99.90;;;;;;5033545;28;20098;-61
2024/01/30 04:50:44;;;;;;;25.23;18.90;;;7.50;99.90;;;;;;5030860;28;20040;-60
2024/01/30 04:53:09;;;;;;;26.67;19.55;;;7.50;99.90;;;;;;5050584;28;20142;-61
2024/01/30 04:55:36;;;;;;;24.55;18.40;;;7.50;99.90;;;;;;5046861;28;20487;-61
2024/01/30 04:58:02;;;;;;;27.13;18.88;;;7.50;99.90;;;;;;5046246;28;20047;-61
2024/01/30 05:01:02;;;;;;;25.80;18.27;;;7.50;99.90;;;;;;5034131;28;20041;-61
2024/01/30 05:03:28;;;;;;;27.77;18.25;;;7.50;99.90;;;;;;5050412;28;20048;-61
2024/01/30 05:05:54;;;;;;;27.55;18.27;;;7.50;99.90;;;;;;5047589;28;20482;-61
2024/01/30 05:08:19;;;;;;;26.50;18.80;;;7.50;99.90;;;;;;5050012;28;20036;-62
2024/01/30 05:10:46;;;;;;;26.00;18.75;;;7.50;99.90;;;;;;5029734;28;20044;-61
2024/01/30 05:13:13;;;;;;;27.17;19.08;;;7.60;99.90;;;;;;5048866;28;20059;-61
2024/01/30 05:15:39;;;;;;;23.80;17.55;;;7.50;99.90;;;;;;5032303;28;20048;-61
2024/01/30 05:18:05;;;;;;;26.05;19.25;;;7.60;99.90;;;;;;5033380;28;20400;-61
2024/01/30 05:20:30;;;;;;;22.38;16.70;;;7.60;99.90;;;;;;5045380;28;20043;-61
2024/01/30 05:22:56;;;;;;;24.40;18.05;;;7.60;99.90;;;;;;5061426;28;20041;-59
2024/01/30 05:25:23;;;;;;;26.35;17.00;;;7.60;99.90;;;;;;5047912;28;20508;-61
2024/01/30 05:27:48;;;;;;;25.98;18.27;;;7.60;99.90;;;;;;5040305;28;20052;-62
2024/01/30 05:30:14;;;;;;;21.77;17.17;;;7.60;99.90;;;;;;5045183;28;20048;-61
2024/01/30 05:32:40;;;;;;;24.60;17.48;;;7.60;99.90;;;;;;5044136;28;20511;-61
2024/01/30 05:35:07;;;;;;;24.83;16.98;;;7.70;99.90;;;;;;5045261;28;20139;-61
2024/01/30 05:37:33;;;;;;;24.52;18.02;;;7.60;99.90;;;;;;5065721;28;20391;-61
2024/01/30 05:39:59;;;;;;;28.92;17.88;;;7.60;99.90;;;;;;5050185;28;20210;-61
2024/01/30 05:42:25;;;;;;;23.80;17.52;;;7.60;99.90;;;;;;5030386;28;20040;-61
2024/01/30 05:44:51;;;;;;;23.27;17.13;;;7.70;99.90;;;;;;5035281;28;20052;-61
2024/01/30 05:47:17;;;;;;;24.52;17.13;;;7.70;99.90;;;;;;5043639;28;20044;-61
2024/01/30 05:49:42;;;;;;;23.35;16.55;;;7.70;99.90;;;;;;5054034;28;20040;-61
2024/01/30 05:52:08;;;;;;;23.10;17.40;;;7.70;99.90;;;;;;5045351;28;20390;-62
2024/01/30 05:54:34;;;;;;;23.00;17.40;;;7.70;99.90;;;;;;5049208;28;20044;-61
2024/01/30 05:56:59;;;;;;;22.05;16.65;;;7.70;99.90;;;;;;5031606;28;20082;-61
2024/01/30 05:59:25;;;;;;;23.42;17.95;;;7.70;99.90;;;;;;5028772;28;20127;-60
2024/01/30 06:01:51;;;;;;;23.48;16.58;;;7.80;99.90;;;;;;5063041;28;20086;-61
2024/01/30 06:04:17;;;;;;;22.85;16.40;;;7.80;99.90;;;;;;5020552;28;20040;-60
2024/01/30 06:06:42;;;;;;;22.35;16.92;;;7.80;99.90;;;;;;5049762;28;20101;-61
2024/01/30 06:09:12;;;;;;;24.50;16.15;;;7.80;99.90;;;;;;5045599;28;20106;-60
2024/01/30 06:11:38;;;;;;;24.60;17.08;;;7.80;99.90;;;;;;5049482;28;20040;-60
2024/01/30 06:14:04;;;;;;;23.52;17.30;;;7.90;99.90;;;;;;5048215;28;20052;-60
2024/01/30 06:16:30;;;;;;;25.35;16.73;;;7.90;99.90;;;;;;5027665;28;20055;-60
2024/01/30 06:18:56;;;;;;;24.10;17.27;;;7.90;99.90;;;;;;5015072;28;20041;-61
2024/01/30 06:21:23;;;;;;;23.75;16.73;;;7.90;99.90;;;;;;5033740;28;20617;-61
2024/01/30 06:23:52;;;;;;;25.52;17.00;;;7.90;99.90;;;;;;5041988;28;20052;-61
2024/01/30 06:26:18;;;;;;;22.88;16.27;;;7.90;99.90;;;;;;5045977;28;20127;-61
2024/01/30 06:28:44;;;;;;;24.20;16.98;;;7.90;99.90;;;;;;5050014;28;20470;-61
2024/01/30 06:31:10;;;;;;;25.08;16.55;;;7.90;99.90;;;;;;5041500;28;20090;-61
2024/01/30 06:33:35;;;;;;;20.30;16.48;;;7.90;99.90;;;;;;5042146;28;20049;-61
2024/01/30 06:36:01;;;;;;;29.33;17.58;;;7.90;99.90;;;;;;5046443;28;20075;-61
2024/01/30 06:38:27;;;;;;;21.73;16.60;;;7.90;99.90;;;;;;5036777;28;20537;-61
2024/01/30 06:40:53;;;;;;;24.35;16.63;;;7.90;99.90;;;;;;5029686;28;20085;-61
2024/01/30 06:43:19;;;;;;;25.33;17.35;;;7.90;99.90;;;;;;5048903;28;20052;-61
2024/01/30 06:45:45;;;;;;;24.95;16.17;;;7.90;99.90;;;;;;5039159;28;20404;-61
2024/01/30 06:48:11;;;;;;;24.30;16.38;;;7.90;99.90;;;;;;5046889;28;20037;-61
2024/01/30 06:50:37;;;;;;;23.35;16.30;;;7.90;99.90;;;;;;5028599;28;20509;-61
2024/01/30 06:53:03;;;;;;;23.65;17.45;;;8.00;99.90;;;;;;5043265;28;20127;-61
2024/01/30 06:55:29;;;;;;;23.40;16.30;;;7.90;99.90;;;;;;5043799;28;20120;-61
2024/01/30 06:57:55;;;;;;;23.95;16.48;;;8.00;99.90;;;;;;5029642;28;20127;-61
2024/01/30 07:00:21;;;;;;;22.08;15.90;;;8.00;99.90;;;;;;5063118;28;20060;-62
2024/01/30 07:02:47;;;;;;;24.38;16.90;;;8.00;99.90;;;;;;5043446;28;20036;-61
2024/01/30 07:05:13;;;;;;;22.58;15.57;;;8.00;99.90;;;;;;5026544;28;20040;-61
2024/01/30 07:07:38;;;;;;;19.77;15.55;;;8.00;99.90;;;;;;5042076;28;20076;-62
2024/01/30 07:10:05;;;;;;;22.35;16.33;;;8.00;99.90;;;;;;5043186;28;20103;-62
2024/01/30 07:12:31;;;;;;;23.55;17.25;;;8.00;99.90;;;;;;5038704;28;20072;-61
2024/01/30 07:14:59;;;;;;;21.25;15.60;;;8.00;99.90;;;;;;5028653;28;20060;-61
2024/01/30 07:17:25;;;;;;;21.98;16.63;;;8.00;99.90;;;;;;5050349;28;20123;-61
2024/01/30 07:19:50;;;;;;;23.77;16.55;;;8.10;99.90;;;;;;5042622;28;20054;-62
2024/01/30 07:22:16;;;;;;;22.10;16.15;;;8.10;99.90;;;;;;5063359;28;20399;-61
2024/01/30 07:24:47;;;;;;;22.60;15.90;;;8.10;99.90;;;;;;5045043;28;20048;-60
2024/01/30 07:27:14;;;;;;;24.38;16.55;;;8.10;99.90;;;;;;5044633;28;20047;-60
2024/01/30 07:29:40;;;;;;;21.58;15.80;;;8.10;99.90;;;;;;5044417;28;20041;-61
2024/01/30 07:32:06;;;;;;;21.65;15.73;;;8.10;99.90;;;;;;5042236;28;20090;-61
2024/01/30 07:34:31;;;;;;;22.75;14.95;;;8.10;99.90;;;;;;5024608;28;20036;-62
2024/01/30 07:36:57;;;;;;;20.65;15.68;;;8.10;99.90;;;;;;5040990;28;20086;-62
2024/01/30 07:39:23;;;;;;;20.42;16.27;;;8.10;99.90;;;;;;5043593;28;20068;-62
2024/01/30 07:41:49;;;;;;;25.05;15.40;;;8.20;99.90;;;;;;5056259;28;20407;-62
2024/01/30 07:44:15;;;;;;;19.48;14.95;;;8.20;99.90;;;;;;5026986;28;20060;-62
2024/01/30 07:46:41;;;;;;;24.00;15.70;;;8.20;99.90;;;;;;5058132;28;20036;-62
2024/01/30 07:49:07;;;;;;;22.45;15.93;;;8.20;99.90;;;;;;5011516;28;20549;-62
2024/01/30 07:51:33;;;;;;;26.23;14.38;;;8.20;99.90;;;;;;5031116;28;20040;-62
2024/01/30 07:53:58;;;;;;;22.38;14.77;;;8.20;99.90;;;;;;5042770;28;20037;-62
2024/01/30 07:56:24;;;;;;;22.65;15.90;;;8.20;99.90;;;;;;5023494;28;20040;-61
2024/01/30 07:58:50;;;;;;;20.73;14.88;;;8.20;99.90;;;;;;5026999;28;20036;-61
2024/01/30 08:01:16;;;;;;;22.25;14.65;;;8.20;99.90;;;;;;5048558;28;20040;-61
2024/01/30 08:03:42;;;;;;;21.95;14.77;;;8.20;99.90;;;;;;5048154;28;20126;-62
2024/01/30 08:06:08;;;;;;;22.65;15.65;;;8.20;99.90;;;;;;5046946;28;20123;-63
2024/01/30 08:08:33;;;;;;;21.40;15.10;;;8.20;99.90;;;;;;5046481;28;20089;-61
2024/01/30 08:10:59;;;;;;;19.02;14.05;;;8.20;99.90;;;;;;5047231;28;20512;-61
2024/01/30 08:13:25;;;;;;;19.80;14.05;;;8.30;99.90;;;;;;5042972;28;20270;-61
2024/01/30 08:15:50;;;;;;;22.05;14.93;;;8.30;99.90;;;;;;5030001;28;20506;-61
2024/01/30 08:18:16;;;;;;;22.08;15.25;;;8.30;99.90;;;;;;5047500;28;20044;-61
2024/01/30 08:20:42;;;;;;;19.35;13.63;;;8.40;99.90;;;;;;5043985;28;20298;-63
2024/01/30 08:23:08;;;;;;;19.08;14.00;;;8.40;99.90;;;;;;5045832;28;20526;-61
2024/01/30 08:25:33;;;;;;;23.75;14.95;;;8.40;99.90;;;;;;5058647;28;20044;-61
2024/01/30 08:27:59;;;;;;;29.95;15.25;;;8.50;99.90;;;;;;5051395;28;20444;-61
2024/01/30 08:30:25;;;;;;;29.77;15.02;;;8.50;99.90;;;;;;5066702;28;20029;-61
2024/01/30 08:32:51;;;;;;;23.42;14.93;;;8.50;99.90;;;;;;5049816;28;20051;-61
2024/01/30 08:35:17;;;;;;;21.83;14.40;;;8.50;99.90;;;;;;5049280;28;20046;-63
2024/01/30 08:37:43;;;;;;;19.50;14.05;;;8.50;99.90;;;;;;5050888;28;20480;-61
2024/01/30 08:40:09;;;;;;;19.33;14.50;;;8.60;99.90;;;;;;5032673;28;20707;-60
2024/01/30 08:42:35;;;;;;;23.15;15.02;;;8.60;99.90;;;;;;5052492;28;20144;-63
2024/01/30 08:45:00;;;;;;;19.35;14.70;;;8.60;99.90;;;;;;5055486;28;20084;-63
2024/01/30 08:47:26;;;;;;;20.80;14.75;;;8.60;99.90;;;;;;5052651;28;20054;-63
2024/01/30 08:49:52;;;;;;;21.77;15.35;;;8.70;99.90;;;;;;5049333;28;20068;-63
2024/01/30 08:52:18;;;;;;;21.27;14.90;;;8.70;99.90;;;;;;5049601;28;20108;-63
2024/01/30 08:54:44;;;;;;;22.23;14.13;;;8.70;99.90;;;;;;5050389;28;20704;-63
2024/01/30 08:57:10;;;;;;;21.77;14.50;;;8.80;99.90;;;;;;5048977;28;20120;-64
2024/01/30 08:59:35;;;;;;;23.65;14.95;;;8.80;99.90;;;;;;5050449;28;20047;-62
2024/01/30 09:02:03;;;;;;;19.65;14.52;;;8.90;99.90;;;;;;5049356;28;20044;-63
2024/01/30 09:04:29;;;;;;;23.50;16.25;;;8.90;99.90;;;;;;5021770;28;20052;-64
2024/01/30 09:06:54;;;;;;;21.63;14.07;;;9.00;99.90;;;;;;5047571;28;20102;-64
2024/01/30 09:09:20;;;;;;;22.10;14.45;;;9.00;99.90;;;;;;5049884;28;20045;-62
2024/01/30 09:11:46;;;;;;;21.55;14.98;;;9.00;99.90;;;;;;5050372;28;20117;-63
2024/01/30 09:14:12;;;;;;;19.15;14.13;;;9.00;99.90;;;;;;5052103;28;20048;-64
2024/01/30 09:16:38;;;;;;;22.02;14.60;;;9.10;99.90;;;;;;5031244;28;20420;-62
2024/01/30 09:19:04;;;;;;;22.48;15.77;;;9.10;99.90;;;;;;5047805;28;20053;-64
2024/01/30 09:21:30;;;;;;;21.83;14.93;;;9.10;99.90;;;;;;5049041;28;20044;-64
2024/01/30 09:24:03;;;;;;;21.25;13.77;;;9.10;99.90;;;;;;5048207;28;20128;-64
2024/01/30 09:26:29;;;;;;;24.38;14.98;;;9.20;99.90;;;;;;5033012;28;20052;-62
2024/01/30 09:28:55;;;;;;;21.17;14.25;;;9.20;99.90;;;;;;5050944;28;20066;-64
2024/01/30 09:31:21;;;;;;;21.27;13.50;;;9.20;99.90;;;;;;5049423;28;20043;-64
2024/01/30 09:33:47;;;;;;;20.90;14.02;;;9.30;99.90;;;;;;5047843;28;20303;-62
2024/01/30 09:36:15;;;;;;;20.70;13.68;;;9.40;99.90;;;;;;5064379;28;20044;-65
2024/01/30 09:38:41;;;;;;;22.05;14.30;;;9.40;99.90;;;;;;5041655;28;20054;-63
2024/01/30 09:41:11;;;;;;;21.80;14.57;;;9.50;99.90;;;;;;5046751;28;20040;-64
2024/01/30 09:43:39;;;;;;;27.75;15.98;;;9.60;99.90;;;;;;5050296;28;20052;-64
2024/01/30 09:46:07;;;;;;;22.33;14.32;;;9.60;99.90;;;;;;5067308;28;20123;-62
2024/01/30 09:48:34;;;;;;;23.60;15.13;;;9.70;99.90;;;;;;5042627;28;20044;-64
2024/01/30 09:51:00;;;;;;;22.08;14.45;;;9.70;99.90;;;;;;5062712;22;20015;-59
2024/01/30 09:53:26;;;;;;;22.77;14.07;;;9.80;99.90;;;;;;5050141;28;20052;-60
2024/01/30 09:55:52;;;;;;;23.42;15.52;;;9.90;99.90;;;;;;5067601;28;20074;-59
2024/01/30 09:58:18;;;;;;;23.33;14.82;;;10.00;99.90;;;;;;5051019;28;20076;-59
2024/01/30 10:00:44;;;;;;;20.15;14.75;;;10.00;99.90;;;;;;5036060;28;20032;-59
2024/01/30 10:03:10;;;;;;;21.90;14.95;;;10.00;99.90;;;;;;5014602;28;20043;-59
2024/01/30 10:05:39;;;;;;;28.40;14.93;;;10.00;99.90;;;;;;5012556;28;20037;-59
2024/01/30 10:08:10;;;;;;;23.52;13.15;;;10.10;99.90;;;;;;5027954;28;20515;-59
2024/01/30 10:10:36;;;;;;;21.23;13.43;;;10.10;99.90;;;;;;5035601;28;20044;-60
2024/01/30 10:13:02;;;;;;;20.70;13.63;;;10.10;99.90;;;;;;5010288;28;20181;-60
2024/01/30 10:15:31;;;;;;;25.15;14.70;;;10.10;99.90;;;;;;5012708;28;20106;-60
2024/01/30 10:17:57;;;;;;;22.77;14.10;;;10.10;99.90;;;;;;5040734;28;20114;-59
2024/01/30 10:20:25;;;;;;;21.90;13.40;;;10.10;99.90;;;;;;5026157;28;20503;-60
2024/01/30 10:22:50;;;;;;;22.13;13.98;;;10.10;99.90;;;;;;5003999;28;20033;-59
2024/01/30 10:25:17;;;;;;;18.73;13.15;;;10.10;99.90;;;;;;5026045;28;20044;-60
2024/01/30 10:27:42;;;;;;;24.60;14.38;;;10.10;99.90;;;;;;5008009;28;20132;-60
2024/01/30 10:30:09;;;;;;;19.60;13.70;;;10.10;99.90;;;;;;5004908;28;20474;-59
2024/01/30 10:32:34;;;;;;;22.70;12.20;;;10.10;99.90;;;;;;5008818;28;20052;-59
2024/01/30 10:35:00;;;;;;;22.48;13.07;;;10.10;99.90;;;;;;5043704;28;20036;-60
2024/01/30 10:37:29;;;;;;;19.27;12.80;;;10.10;99.90;;;;;;5028854;28;20492;-58
2024/01/30 10:40:00;;;;;;;20.88;11.88;;;10.10;99.90;;;;;;5011070;28;20049;-59
2024/01/30 10:42:29;;;;;;;21.15;12.77;;;10.10;99.90;;;;;;5037128;28;20056;-59
2024/01/30 10:45:06;;;;;;;19.65;10.20;;;10.10;99.90;;;;;;5023769;28;20250;-60
2024/01/30 10:47:36;;;;;;;16.10;9.45;;;10.10;99.90;;;;;;5023669;28;20049;-60
2024/01/30 10:50:03;;;;;;;18.88;8.52;;;10.00;99.90;;;;;;5023384;28;20106;-60
2024/01/30 10:52:29;;;;;;;20.77;8.75;;;10.00;99.90;;;;;;4988098;28;20052;-60
2024/01/30 10:54:56;;;;;;;18.83;8.30;;;10.00;99.90;;;;;;5039079;28;20091;-60
2024/01/30 10:57:26;;;;;;;16.63;5.80;;;10.00;99.90;;;;;;5020125;28;20498;-59
2024/01/30 11:00:00;;;;;;;17.13;7.47;;;10.00;99.90;;;;;;5020389;28;20045;-59
2024/01/30 11:02:26;;;;;;;13.90;4.53;;;9.90;99.90;;;;;;5024859;28;20044;-59
2024/01/30 11:04:59;;;;;;;12.65;3.10;;;9.90;99.90;;;;;;5020753;28;20553;-59
2024/01/30 11:07:28;;;;;;;10.17;3.97;;;9.80;99.90;;;;;;5039859;28;20037;-60
2024/01/30 11:10:00;;;;;;;12.52;4.80;;;9.80;99.90;;;;;;5022979;28;20045;-60
2024/01/30 11:12:30;;;;;;;11.73;3.35;;;9.80;99.90;;;;;;5021566;28;20044;-59
2024/01/30 11:15:07;;;;;;;10.27;3.92;;;9.80;99.90;;;;;;5019043;28;20033;-59
2024/01/30 11:17:45;;;;;;;6.20;2.70;;;9.80;99.90;;;;;;5017878;28;20037;-59
2024/01/30 11:20:31;;;;;;;7.07;3.05;;;9.80;99.90;;;;;;5024369;28;20387;-59
2024/01/30 11:22:58;;;;;;;9.48;3.53;;;9.70;99.90;;;;;;5021032;28;20056;-59
2024/01/30 11:25:25;;;;;;;9.02;3.53;;;9.70;99.90;;;;;;5024485;28;20056;-60
2024/01/30 11:27:55;;;;;;;14.30;3.45;;;9.70;99.90;;;;;;5004952;28;20167;-59
2024/01/30 11:30:29;;;;;;;10.50;3.42;;;9.70;99.90;;;;;;5020618;28;20037;-60
2024/01/30 11:33:04;;;;;;;8.93;3.28;;;9.70;99.90;;;;;;5026866;28;20115;-60
2024/01/30 11:35:48;;;;;;;11.55;3.83;;;9.70;99.90;;;;;;5022866;28;20045;-60
2024/01/30 11:38:14;;;;;;;9.20;3.45;;;9.70;99.90;;;;;;5020314;28;20098;-59
2024/01/30 11:40:40;;;;;;;10.82;3.78;;;9.70;99.90;;;;;;5037488;28;20601;-60
2024/01/30 11:43:08;;;;;;;15.85;4.68;;;9.70;99.90;;;;;;5045958;28;20052;-59
2024/01/30 11:45:36;;;;;;;12.73;4.80;;;9.70;99.90;;;;;;5024337;28;20076;-60
2024/01/30 11:48:05;;;;;;;13.15;3.95;;;9.70;99.90;;;;;;5010255;28;20063;-60
2024/01/30 11:50:34;;;;;;;15.18;4.07;;;9.70;99.90;;;;;;5007906;28;20058;-59
2024/01/30 11:53:04;;;;;;;14.43;3.85;;;9.60;99.90;;;;;;5006983;28;20041;-60
2024/01/30 11:55:30;;;;;;;5.97;2.55;;;9.60;99.90;;;;;;5024273;28;20144;-60
2024/01/30 11:57:59;;;;;;;8.60;3.03;;;9.60;99.90;;;;;;5004523;28;20601;-60
2024/01/30 12:00:25;;;;;;;9.45;2.85;;;9.50;99.90;;;;;;5024827;28;20053;-60
2024/01/30 12:02:55;;;;;;;7.18;2.55;;;9.50;99.90;;;;;;5025985;28;20415;-60
2024/01/30 12:05:25;;;;;;;6.55;3.05;;;9.50;99.90;;;;;;5024001;28;20142;-60
2024/01/30 12:07:52;;;;;;;8.48;2.53;;;9.50;99.90;;;;;;5026231;28;20616;-60
2024/01/30 12:10:18;;;;;;;8.80;2.55;;;9.50;99.90;;;;;;5028856;28;20136;-60
2024/01/30 12:12:49;;;;;;;11.73;2.65;;;9.60;99.90;;;;;;5025503;28;20072;-60
2024/01/30 12:15:16;;;;;;;5.55;1.90;;;9.50;99.90;;;;;;5030643;28;20068;-60
2024/01/30 12:17:47;;;;;;;10.70;2.72;;;9.60;99.90;;;;;;5045534;28;20045;-60
2024/01/30 12:20:17;;;;;;;10.50;2.65;;;9.60;99.90;;;;;;5023772;28;20076;-60
2024/01/30 12:22:44;;;;;;;7.55;2.65;;;9.60;99.90;;;;;;5027002;28;20495;-59
2024/01/30 12:25:19;;;;;;;8.00;2.17;;;9.60;99.90;;;;;;5023170;28;20039;-60
2024/01/30 12:27:49;;;;;;;5.68;2.25;;;9.60;99.90;;;;;;5026198;28;20444;-59
2024/01/30 12:30:16;;;;;;;7.93;2.20;;;9.60;99.90;;;;;;5026909;28;20487;-59
2024/01/30 12:32:43;;;;;;;6.80;1.75;;;9.60;99.90;;;;;;5037242;28;20514;-59
2024/01/30 12:35:16;;;;;;;6.78;2.53;;;9.60;99.90;;;;;;5045364;28;20037;-60